Recycle, Texas
Current Conditions -  °F | °C
As of 8:15 PM on Sunday 21 Dec 2014 (Local Time) from KPEZ Reporting Station
Broken Clouds Broken Clouds  
Wind Chill: 12°   Ceiling: 2400
Heat Index: 12°   Visibility: 7mi
Dew Point: 11°   Wind: 0mph
Humidity: 96%   Direction: NA
Pressure: 29.89"   Gusts: NA
Location:  29.0306°N, 98.0993°W
Report Text: KPEZ 220215Z AUTO 00000KT 7SM BKN024 12/11 A2989 RMK AO2 T01170111
Loading
Personal Weather Stations






























Interactive Weather Map New forecast layout! Learn more

10-Day Weather Forecast

Advertisements
Track Severe Weather on mobile